Weather at Watts Bridge Airport

Public forecast

Using degrees Celsius for public forecast. Weather courtesy of forecast.io.

Closest aviation weather report (METAR) to Watts Bridge Airport

Closest report is RAAF Base Amberley, 35.3 nm (65.3 km) SSE.

2024/05/23 00:30 (retrieved 34 minutes ago)

YAMB 230030Z 18005KT 150V220 9999 FEW030 19/12 Q1025 RF000/0000

Closest aviation forecast (TAF) to Watts Bridge Airport

Forecast is more than 6 hours old.

Closest forecast is Touho Airport, 797.3 nm (1,476.5 km) ENE.

2024/05/22 18:00 Ammendment (retrieved 7 hours ago)

TAF AMD NWWU 221833Z 2218/2318 CNL